Frilaens III — LK8780 — position and weather

sailwx.info

Track history (hours):
 
Tides and Currents Weather Stations Pressure Air Temp Water Temp Dewpoint Dewpoint Depression Visibility Wind Speed Wind Dir Waves Ship Positions

Frilaens III

Last reported at 2014-Jul-25 12:08 UTC. Time now 2014-Jul-31 03:20 UTC.
Position N 43°33' E 010°04'.

Length 12 m.

Type: Sailing vessel. MMSI: 257640790.

Date/timePositionNaut miles runAvg speedWind from/ knotsBaromVisibWave heightAir tempDewpointWater temp
2014-Jul-25 12:08N 43°33' E 010°04'5 7.2
2014-Jul-25 11:30N 43°38' E 010°03'6 5.8
2014-Jul-25 10:32N 43°43' E 009°60'7 6.8
2014-Jul-25 09:33N 43°49' E 009°58'7 6.8
2014-Jul-25 08:33N 43°56' E 009°56'7 7.2
2014-Jul-25 07:33N 44°03' E 009°55'2 2.0
2014-Jul-25 06:33N 44°05' E 009°53'1 0.1
2014-Jul-24 16:05N 44°04' E 009°54'2 3.8
2014-Jul-24 15:33N 44°04' E 009°52'  
Track history (hours):
 
Tides and Currents Weather Stations Pressure Air Temp Water Temp Dewpoint Dewpoint Depression Visibility Wind Speed Wind Dir Waves Ship Positions

Frilaens III

Last reported at 2014-Jul-25 12:08 UTC. Time now 2014-Jul-31 03:20 UTC.
Position N 43°33' E 010°04'.

Length 12 m.

Type: Sailing vessel. MMSI: 257640790.

Date/timePositionNaut miles runAvg speedWind from/ knotsBaromVisibWave heightAir tempDewpointWater temp
2014-Jul-25 12:08N 43°33' E 010°04'5 7.2
2014-Jul-25 11:30N 43°38' E 010°03'6 5.8
2014-Jul-25 10:32N 43°43' E 009°60'7 6.8
2014-Jul-25 09:33N 43°49' E 009°58'7 6.8
2014-Jul-25 08:33N 43°56' E 009°56'7 7.2
2014-Jul-25 07:33N 44°03' E 009°55'2 2.0
2014-Jul-25 06:33N 44°05' E 009°53'1 0.1
2014-Jul-24 16:05N 44°04' E 009°54'2 3.8
2014-Jul-24 15:33N 44°04' E 009°52'  

Dump ship's entire track history